• Guest, pentru o varianta fara reclame a forumului oferim conturi premium. Mai multe detalii aici.

AIR06

Moderator
Staff member
fly-ra 2017
Apr 20, 2012
3,430
1,774
153
Constanta
"In perioada 13 mai - 1 iunie 2014, Aeroportul Bergamo - Orio al Serio va fi inchis pentru lucrari de intretinere.
Din aceasta cauza ne vedem nevoiti sa operam cursele pe Aeroportul Milano Malpensa in perioada mentionata.
Orarul zborurilor nu se va modifica"

blue air
 

Thomas

Moderator
Staff member
Premium Member
fly-ra 2017
Feb 9, 2012
3,898
2,010
203
54
Göttingen/Germania
Flugstatistik / Flightmemory
[IMG]
Ce oferta de zboruri catre România din vara viitoare:

- ARW: Wizz Air 2/7
- BCM: Blue Air 3/7
- CLJ: Wizz Air 5/7
- CRA: Wizz Air 4/7
- IAS: Tarom 2/7
- OTP: Wizz Air 7/7, Blue Air 4/7
- TCE: Fly Romania 2/7
- TGM: Wizz Air 2/7
- TSR: Wizz Air 4/7

Nu mai putin de 9 destinatii românesti ...
 

Thomas

Moderator
Staff member
Premium Member
fly-ra 2017
Feb 9, 2012
3,898
2,010
203
54
Göttingen/Germania
Flugstatistik / Flightmemory
[IMG]
referitor la tema asta sunt destul de sceptic ... intentionat nu i-am enumerat ... ;)
 
  • 👍
Reactions: 3 users

alex

Well-Known Member
May 24, 2012
2,601
799
113
54
CRAIOVA
Stie cineva, ceva, despre BGY?
Foarte multe aeronave in HOLd , printre care si aeronava de la CRA?!
( Cursele de la : Bucuresti, Hamburg, Cracovia, Brusseles, etc)
 
Last edited:

Zsolt

King Nothing
Staff member
fly-ra 2017
Feb 12, 2012
6,984
2,452
203
NZNV
flightradar24 feed id
My fr24 statistics
flightaware feed
My flightaware feed
Flightdiary
My fr24 profile
Conditii meteo.

LIME 261350Z 03009KT 350V080 9999 TS FEW020CB SCT060 11/06 Q1014 RERA NOSIG=
LIME 261320Z 03011KT 8000 -TSRA FEW020CB BKN045 09/06 Q1014 RERA NOSIG=
LIME 261250Z 31014G25KT 4000 TSRAGS SCT020CB BKN045 12/06 Q1014 NOSIG=
 
  • 👍
Reactions: 1 users

byteworks

New Member
Feb 18, 2013
15
14
3
Suceava
Confirm, W6 3608 a avut intarziere o ora vineri pe SCV din pricina asta, comandantul zicea ca au facut orbit o ora la aterizare la BGY.
 
  • 👍
Reactions: 1 users